Time;durP1;ratioP1;P1;durP2;ratioP2;P2;SDS_P1;SDS_P2;PMS_P1;PMS_P2;Temp;Humidity;BMP_temperature;BMP_pressure;BME280_temperature;BME280_humidity;BME280_pressure;Samples;Min_cycle;Max_cycle;Signal;HPM_P1;HPM_P2
2023/04/25 00:00:28;;;;;;;1.90;1.80;;;;;;;7.85;100.00;95735.31;5009967;28;104953;-63
2023/04/25 00:02:56;;;;;;;3.07;1.70;;;;;;;7.87;100.00;95729.78;5010290;28;102291;-63
2023/04/25 00:05:23;;;;;;;1.93;1.70;;;;;;;7.90;100.00;95731.94;5011665;28;102562;-63
2023/04/25 00:07:50;;;;;;;1.90;1.80;;;;;;;7.85;100.00;95737.19;5009578;28;105383;-63
2023/04/25 00:10:17;;;;;;;1.90;1.80;;;;;;;7.88;100.00;95734.03;5010413;28;101962;-63
2023/04/25 00:12:45;;;;;;;3.57;1.57;;;;;;;7.93;100.00;95726.13;5010007;28;105316;-62
2023/04/25 00:15:12;;;;;;;1.97;1.77;;;;;;;7.92;100.00;95725.31;5013145;28;105551;-62
2023/04/25 00:17:41;;;;;;;2.13;1.70;;;;;;;7.93;100.00;95726.94;5010082;28;105353;-63
2023/04/25 00:20:09;;;;;;;1.77;1.67;;;;;;;7.89;100.00;95719.75;5009711;28;104129;-62
2023/04/25 00:22:38;;;;;;;2.07;1.83;;;;;;;7.89;100.00;95725.03;5009696;28;101950;-63
2023/04/25 00:25:06;;;;;;;1.63;1.53;;;;;;;7.94;100.00;95723.25;5010729;28;102316;-62
2023/04/25 00:27:33;;;;;;;1.80;1.70;;;;;;;7.97;100.00;95719.31;5009261;28;103682;-62
2023/04/25 00:30:02;;;;;;;2.50;1.70;;;;;;;7.96;100.00;95715.84;5010058;28;102270;-62
2023/04/25 00:32:30;;;;;;;2.07;1.83;;;;;;;7.87;100.00;95716.56;5009973;28;104890;-63
2023/04/25 00:34:58;;;;;;;1.90;1.53;;;;;;;7.76;100.00;95709.56;5009310;28;106013;-63
2023/04/25 00:37:25;;;;;;;2.20;2.00;;;;;;;7.86;100.00;95712.31;5013162;28;102285;-62
2023/04/25 00:39:53;;;;;;;2.20;1.93;;;;;;;7.84;100.00;95711.75;5009085;28;105255;-62
2023/04/25 00:42:20;;;;;;;2.70;2.17;;;;;;;7.88;100.00;95711.00;5010015;28;101933;-62
2023/04/25 00:44:49;;;;;;;2.00;1.70;;;;;;;7.89;100.00;95702.03;5009898;28;104970;-63
2023/04/25 00:47:17;;;;;;;2.13;1.60;;;;;;;7.93;100.00;95702.31;5009206;28;104981;-63
2023/04/25 00:49:44;;;;;;;2.00;1.80;;;;;;;7.97;100.00;95698.13;5010800;28;102062;-63
2023/04/25 00:52:13;;;;;;;1.80;1.70;;;;;;;7.95;100.00;95693.06;5009586;28;105363;-63
2023/04/25 00:54:41;;;;;;;2.10;1.83;;;;;;;7.98;100.00;95694.44;5008920;28;104304;-63
2023/04/25 00:57:08;;;;;;;1.97;1.87;;;;;;;7.90;100.00;95689.59;5009586;28;101858;-63
2023/04/25 00:59:37;;;;;;;1.80;1.63;;;;;;;7.95;100.00;95692.25;5012447;28;105194;-63
2023/04/25 01:02:04;;;;;;;1.73;1.63;;;;;;;7.95;100.00;95692.25;5009102;28;101831;-63
2023/04/25 01:04:37;;;;;;;2.40;2.20;;;;;;;7.78;100.00;95697.69;5009452;28;105022;-63
2023/04/25 01:07:04;;;;;;;3.23;2.33;;;;;;;7.85;100.00;95702.78;5010333;28;102686;-63
2023/04/25 01:09:31;;;;;;;2.77;2.03;;;;;;;7.89;100.00;95703.84;5009720;28;101900;-63
2023/04/25 01:11:58;;;;;;;1.80;1.70;;;;;;;7.86;100.00;95701.72;5009183;28;104483;-63
2023/04/25 01:14:25;;;;;;;2.23;1.70;;;;;;;7.89;100.00;95698.56;5010004;28;101779;-63
2023/04/25 01:16:52;;;;;;;2.60;2.40;;;;;;;7.93;100.00;95697.03;5010780;28;101660;-63
2023/04/25 01:19:20;;;;;;;3.13;1.90;;;;;;;7.94;100.00;95699.44;5009267;28;105742;-63
2023/04/25 01:21:49;;;;;;;3.90;2.17;;;;;;;7.99;100.00;95691.53;5013130;28;101937;-63
2023/04/25 01:24:17;;;;;;;3.57;2.20;;;;;;;7.97;100.00;95700.78;5008755;28;104838;-63
2023/04/25 01:26:49;;;;;;;2.00;1.90;;;;;;;7.97;100.00;95690.97;5008320;28;104971;-63
2023/04/25 01:29:18;;;;;;;2.17;2.07;;;;;;;7.98;100.00;95691.78;5009390;28;101966;-63
2023/04/25 01:31:45;;;;;;;2.00;1.83;;;;;;;7.97;100.00;95690.19;5010280;28;102529;-63
2023/04/25 01:34:13;;;;;;;3.13;2.00;;;;;;;7.96;100.00;95691.25;5008191;28;105686;-63
2023/04/25 01:36:40;;;;;;;2.23;2.03;;;;;;;7.88;100.00;95691.69;5008101;28;101734;-63
2023/04/25 01:39:09;;;;;;;2.53;2.00;;;;;;;7.92;100.00;95690.13;5008773;28;105920;-63
2023/04/25 01:41:37;;;;;;;2.47;1.90;;;;;;;7.88;100.00;95689.03;5011670;28;105785;-63
2023/04/25 01:44:05;;;;;;;2.93;1.97;;;;;;;7.87;100.00;95693.53;5010241;28;102336;-63
2023/04/25 01:46:33;;;;;;;2.10;1.90;;;;;;;7.87;100.00;95698.84;5009695;28;102633;-63
2023/04/25 01:49:00;;;;;;;2.77;1.80;;;;;;;7.87;100.00;95700.66;5008458;28;101941;-63
2023/04/25 01:51:27;;;;;;;2.70;1.80;;;;;;;7.81;100.00;95691.88;5008864;28;104772;-63
2023/04/25 01:53:55;;;;;;;2.27;2.17;;;;;;;7.86;100.00;95694.56;5008017;28;105873;-63
2023/04/25 01:56:25;;;;;;;2.27;1.97;;;;;;;7.84;100.00;95694.03;5008776;28;101793;-63
2023/04/25 01:58:52;;;;;;;2.07;1.63;;;;;;;7.80;100.00;95684.19;5008675;28;105256;-63
2023/04/25 02:01:45;;;;;;;1.77;1.67;;;;;;;7.80;100.00;95682.34;5007851;28;105043;-63
2023/04/25 02:04:21;;;;;;;1.90;1.70;;;;;;;7.89;100.00;95686.13;5011999;28;101835;-63
2023/04/25 02:06:48;;;;;;;1.97;1.77;;;;;;;7.91;100.00;95678.72;5007950;28;105314;-63
2023/04/25 02:09:16;;;;;;;2.23;1.70;;;;;;;7.93;100.00;95674.00;5008578;28;101997;-63
2023/04/25 02:11:50;;;;;;;1.70;1.60;;;;;;;7.87;100.00;95664.44;5010260;28;102372;-63
2023/04/25 02:14:37;;;;;;;1.80;1.70;;;;;;;7.88;100.00;95671.31;4986770;28;102339;-63
2023/04/25 02:17:27;;;;;;;1.83;1.67;;;;;;;7.85;100.00;95671.03;5008487;28;101820;-63
2023/04/25 02:19:55;;;;;;;1.73;1.63;;;;;;;7.81;100.00;95669.91;5008558;28;105159;-63
2023/04/25 02:22:22;;;;;;;1.70;1.47;;;;;;;7.72;100.00;95681.97;5007762;28;105356;-63
2023/04/25 02:24:49;;;;;;;1.97;1.77;;;;;;;7.73;100.00;95670.34;5007708;28;101879;-63
2023/04/25 02:27:17;;;;;;;3.13;1.50;;;;;;;7.72;100.00;95666.91;5011165;28;104982;-63
2023/04/25 02:29:44;;;;;;;2.10;1.80;;;;;;;7.69;100.00;95674.56;5008439;28;101764;-63
2023/04/25 02:32:11;;;;;;;2.93;1.60;;;;;;;7.61;100.00;95669.69;5009531;28;102903;-63
2023/04/25 02:34:38;;;;;;;2.23;1.80;;;;;;;7.62;100.00;95668.66;5007467;28;105102;-63
2023/04/25 02:37:06;;;;;;;2.00;1.90;;;;;;;7.58;100.00;95660.41;5009382;28;101866;-63
2023/04/25 02:39:34;;;;;;;4.10;2.00;;;;;;;7.56;100.00;95667.00;5008285;28;104184;-63
2023/04/25 02:42:02;;;;;;;2.57;1.90;;;;;;;7.48;100.00;95660.31;5007663;28;104953;-63
2023/04/25 02:44:31;;;;;;;2.60;2.07;;;;;;;7.45;100.00;95675.88;5008216;28;101894;-63
2023/04/25 02:46:58;;;;;;;2.27;2.07;;;;;;;7.40;100.00;95667.88;5008655;28;104783;-63
2023/04/25 02:49:25;;;;;;;2.07;1.97;;;;;;;7.36;100.00;95662.28;5015827;28;103174;-63
2023/04/25 02:51:53;;;;;;;2.43;1.77;;;;;;;7.45;100.00;95660.00;5011605;28;104777;-63
2023/04/25 02:54:20;;;;;;;2.80;2.00;;;;;;;7.37;100.00;95657.81;5010769;28;105292;-63
2023/04/25 02:56:49;;;;;;;3.20;2.10;;;;;;;7.38;100.00;95659.41;5011388;28;101808;-63
2023/04/25 02:59:23;;;;;;;2.43;1.80;;;;;;;7.43;100.00;95667.41;5011197;28;105149;-63
2023/04/25 03:01:51;;;;;;;4.33;2.20;;;;;;;7.44;100.00;95666.34;5010704;28;105984;-63
2023/04/25 03:04:19;;;;;;;3.40;2.10;;;;;;;7.39;100.00;95661.00;5011445;28;102012;-63
2023/04/25 03:06:47;;;;;;;3.57;2.10;;;;;;;7.48;100.00;95660.31;5011325;28;105060;-63
2023/04/25 03:09:14;;;;;;;2.13;1.90;;;;;;;7.45;100.00;95655.53;5011805;28;103103;-63
2023/04/25 03:11:41;;;;;;;2.70;1.93;;;;;;;7.45;100.00;95665.28;5014825;28;101875;-63
2023/04/25 03:14:08;;;;;;;3.80;1.80;;;;;;;7.46;100.00;95656.31;5010608;28;105734;-63
2023/04/25 03:16:35;;;;;;;1.93;1.83;;;;;;;7.48;100.00;95644.44;5012592;28;101662;-63
2023/04/25 03:19:04;;;;;;;2.17;1.97;;;;;;;7.55;100.00;95646.88;5010967;28;105420;-63
2023/04/25 03:21:32;;;;;;;2.57;2.00;;;;;;;7.58;100.00;95643.75;5010354;28;105365;-63
2023/04/25 03:23:59;;;;;;;1.80;1.70;;;;;;;7.57;100.00;95645.59;5010318;28;101907;-63
2023/04/25 03:26:26;;;;;;;3.03;2.23;;;;;;;7.58;100.00;95647.19;5011062;28;105138;-63
2023/04/25 03:28:53;;;;;;;2.53;2.00;;;;;;;7.57;100.00;95652.72;5010387;28;105608;-63
2023/04/25 03:31:20;;;;;;;3.10;2.00;;;;;;;7.52;100.00;95650.81;5014334;28;101871;-63
2023/04/25 03:33:47;;;;;;;2.50;2.00;;;;;;;7.47;100.00;95653.41;5011704;28;103062;-63
2023/04/25 03:36:15;;;;;;;3.20;1.87;;;;;;;7.47;100.00;95657.94;5012075;28;102076;-63
2023/04/25 03:38:42;;;;;;;3.10;2.00;;;;;;;7.54;100.00;95656.69;5010767;28;105771;-63
2023/04/25 03:41:11;;;;;;;3.43;2.10;;;;;;;7.48;100.00;95654.22;5010154;28;105165;-63
2023/04/25 03:44:00;;;;;;;2.07;1.70;;;;;;;7.48;100.00;95643.66;5011867;28;101918;-63
2023/04/25 03:46:27;;;;;;;2.60;1.90;;;;;;;7.55;100.00;95652.19;5010708;28;105121;-63
2023/04/25 03:48:54;;;;;;;2.70;1.60;;;;;;;7.60;100.00;95647.75;5010160;28;104275;-63
2023/04/25 03:51:28;;;;;;;2.53;2.00;;;;;;;7.63;100.00;95646.47;5011037;28;101834;-63
2023/04/25 03:54:07;;;;;;;4.53;2.03;;;;;;;7.65;100.00;95647.00;5013584;28;105707;-63
2023/04/25 03:56:34;;;;;;;2.80;1.97;;;;;;;7.66;100.00;95654.69;5009302;28;101682;-63
2023/04/25 03:59:10;;;;;;;1.97;1.67;;;;;;;7.64;100.00;95658.63;5009878;28;104792;-63
2023/04/25 04:01:37;;;;;;;4.10;2.50;;;;;;;7.68;100.00;95651.81;5010230;28;104756;-63
2023/04/25 04:04:29;;;;;;;2.33;2.10;;;;;;;7.70;100.00;95655.75;5010685;28;101801;-63
2023/04/25 04:06:58;;;;;;;2.77;2.10;;;;;;;7.70;100.00;95662.91;5010927;28;105178;-63
2023/04/25 04:09:28;;;;;;;2.40;2.20;;;;;;;7.70;100.00;95662.91;5010049;28;105086;-63
2023/04/25 04:11:56;;;;;;;3.13;2.20;;;;;;;7.71;100.00;95651.28;5010560;28;101957;-63
2023/04/25 04:14:37;;;;;;;2.03;1.83;;;;;;;7.73;100.00;95662.41;5010536;28;104862;-63
2023/04/25 04:17:05;;;;;;;5.23;2.30;;;;;;;7.61;100.00;95662.56;5014915;28;102523;-63
2023/04/25 04:19:33;;;;;;;2.70;1.83;;;;;;;7.53;100.00;95670.94;5010266;28;105249;-63
2023/04/25 04:22:27;;;;;;;3.50;2.70;;;;;;;7.41;100.00;95717.13;4990106;28;103690;-63
2023/04/25 04:25:00;;;;;;;2.80;2.40;;;;;;;7.38;100.00;95734.28;4989297;28;104715;-63
2023/04/25 04:27:51;;;;;;;2.87;2.17;;;;;;;7.35;100.00;95715.41;4990677;28;103479;-63
2023/04/25 04:30:37;;;;;;;5.53;2.93;;;;;;;7.11;100.00;95716.72;4989057;28;105494;-63
2023/04/25 04:33:42;;;;;;;1.90;1.70;;;;;;;6.94;100.00;95705.38;4990066;28;101778;-63
2023/04/25 04:36:09;;;;;;;2.87;2.60;;;;;;;6.94;100.00;95689.53;5006778;28;105764;-63
2023/04/25 04:38:38;;;;;;;2.80;2.00;;;;;;;6.93;100.00;95687.94;4989545;28;105787;-63
2023/04/25 04:41:05;;;;;;;3.43;2.60;;;;;;;6.97;100.00;95662.59;4993469;28;101919;-63
2023/04/25 04:43:57;;;;;;;5.20;2.30;;;;;;;6.99;100.00;95679.03;4989481;28;105827;-62
2023/04/25 04:47:03;;;;;;;2.17;1.97;;;;;;;6.98;100.00;95669.50;4983550;28;101894;-63
2023/04/25 04:50:10;;;;;;;2.37;2.13;;;;;;;7.12;100.00;95665.44;4949179;28;102814;-63
2023/04/25 04:53:08;;;;;;;5.37;2.90;;;;;;;7.08;100.00;95674.91;4932900;28;104942;-63
2023/04/25 04:55:55;;;;;;;3.00;2.13;;;;;;;7.19;100.00;95661.56;4983297;28;101775;-61
2023/04/25 04:58:52;;;;;;;4.10;2.17;;;;;;;7.20;100.00;95668.44;4986871;28;103721;-61
2023/04/25 05:01:22;;;;;;;5.00;2.77;;;;;;;7.19;100.00;95672.16;4987566;28;102563;-61
2023/04/25 05:04:11;;;;;;;3.07;2.23;;;;;;;7.17;100.00;95676.06;4989974;28;101840;-61
2023/04/25 05:06:41;;;;;;;2.43;2.23;;;;;;;7.22;100.00;95681.44;4991099;28;102275;-61
2023/04/25 05:09:19;;;;;;;3.00;2.30;;;;;;;7.31;100.00;95675.44;4989914;28;101894;-61
2023/04/25 05:12:08;;;;;;;3.50;2.53;;;;;;;7.34;100.00;95695.31;4989651;28;104886;-61
2023/04/25 05:15:08;;;;;;;2.53;2.33;;;;;;;7.31;100.00;95693.97;4981832;28;102698;-61
2023/04/25 05:18:01;;;;;;;2.40;2.20;;;;;;;7.10;100.00;95700.03;4974004;28;101931;-61
2023/04/25 05:20:48;;;;;;;2.57;2.33;;;;;;;6.94;100.00;95706.19;4979231;28;102388;-61
2023/04/25 05:23:34;;;;;;;2.80;2.07;;;;;;;7.11;100.00;95722.81;4984415;28;102214;-61
2023/04/25 05:26:13;;;;;;;2.17;1.63;;;;;;;7.13;100.00;95722.53;4989570;28;101866;-61
2023/04/25 05:29:02;;;;;;;2.97;1.90;;;;;;;6.83;100.00;95746.72;4978543;28;102704;-61
2023/04/25 05:31:45;;;;;;;1.83;1.73;;;;;;;6.70;100.00;95719.84;4992219;28;104658;-61
2023/04/25 05:34:41;;;;;;;2.60;1.80;;;;;;;6.47;100.00;95709.44;4989691;28;105001;-61
2023/04/25 05:37:15;;;;;;;2.13;1.60;;;;;;;6.37;100.00;95696.91;5005212;28;105003;-61
2023/04/25 05:39:54;;;;;;;2.17;1.60;;;;;;;6.34;100.00;95712.41;4989335;28;101838;-61
2023/04/25 05:42:37;;;;;;;1.90;1.80;;;;;;;6.37;100.00;95707.47;4987602;28;102180;-61
2023/04/25 05:45:54;;;;;;;2.10;1.67;;;;;;;6.44;100.00;95700.16;4989019;28;105293;-61
2023/04/25 05:48:39;;;;;;;2.00;1.63;;;;;;;6.56;100.00;95689.53;4991668;28;101954;-61
2023/04/25 05:51:35;;;;;;;3.13;1.70;;;;;;;6.64;100.00;95689.09;4989119;28;105255;-61
2023/04/25 05:54:42;;;;;;;3.40;2.00;;;;;;;6.65;100.00;95690.72;4991848;28;105287;-61
2023/04/25 05:57:09;;;;;;;1.87;1.60;;;;;;;6.76;100.00;95684.53;5005698;28;105418;-61
2023/04/25 05:59:36;;;;;;;1.80;1.70;;;;;;;6.86;100.00;95689.94;4989115;28;102635;-61
2023/04/25 06:02:06;;;;;;;2.10;1.37;;;;;;;6.88;100.00;95687.88;4988550;28;101984;-61
2023/04/25 06:04:35;;;;;;;1.83;1.60;;;;;;;6.86;100.00;95687.28;4988578;28;104907;-61
2023/04/25 06:07:02;;;;;;;1.50;1.23;;;;;;;6.85;100.00;95691.00;4987633;28;105361;-61
2023/04/25 06:09:30;;;;;;;1.90;1.43;;;;;;;6.89;100.00;95689.47;4989713;28;102173;-61
2023/04/25 06:11:57;;;;;;;2.13;1.80;;;;;;;6.89;100.00;95692.09;4988599;28;105308;-61
2023/04/25 06:14:24;;;;;;;1.57;1.47;;;;;;;6.97;100.00;95704.88;4987992;28;105353;-61
2023/04/25 06:16:51;;;;;;;2.13;1.50;;;;;;;6.96;100.00;95695.34;4991824;28;101885;-61
2023/04/25 06:19:20;;;;;;;1.70;1.60;;;;;;;7.06;100.00;95688.38;4987896;28;105797;-61
2023/04/25 06:21:47;;;;;;;2.83;1.97;;;;;;;7.17;100.00;95689.28;4989106;28;102184;-61
2023/04/25 06:24:14;;;;;;;1.87;1.77;;;;;;;7.26;100.00;95690.47;4991430;28;105530;-61
2023/04/25 06:26:41;;;;;;;3.50;2.30;;;;;;;7.30;100.00;95689.72;4991313;28;105842;-61
2023/04/25 06:29:09;;;;;;;1.47;1.40;;;;;;;7.38;100.00;95676.09;4991664;28;101956;-61
2023/04/25 06:31:36;;;;;;;3.40;1.97;;;;;;;7.42;100.00;95686.97;4991832;28;104778;-61
2023/04/25 06:34:04;;;;;;;2.43;2.00;;;;;;;7.51;100.00;95680.16;4991184;28;105877;-61
2023/04/25 06:36:35;;;;;;;2.10;1.97;;;;;;;7.68;100.00;95673.75;4991806;28;101768;-61
2023/04/25 06:39:07;;;;;;;2.33;2.00;;;;;;;7.78;100.00;95670.41;4994186;28;104630;-61
2023/04/25 06:41:35;;;;;;;2.60;1.93;;;;;;;7.70;100.00;95674.28;4991688;28;101928;-61
2023/04/25 06:44:03;;;;;;;3.33;1.73;;;;;;;7.84;100.00;95669.41;4991875;28;105084;-61
2023/04/25 06:46:36;;;;;;;1.80;1.67;;;;;;;7.85;100.00;95668.38;4991027;28;105130;-61
2023/04/25 06:49:05;;;;;;;2.33;2.10;;;;;;;7.96;100.00;95662.13;4991488;28;101950;-61
2023/04/25 06:51:32;;;;;;;3.17;1.90;;;;;;;8.10;100.00;95656.16;4991465;28;104990;-61
2023/04/25 06:54:00;;;;;;;3.17;1.90;;;;;;;8.23;100.00;95652.31;4992067;28;103000;-61
2023/04/25 06:56:36;;;;;;;2.10;1.80;;;;;;;8.28;100.00;95655.78;4991786;28;101997;-61
2023/04/25 06:59:08;;;;;;;2.73;2.00;;;;;;;8.35;100.00;95656.38;4991355;28;105196;-61
2023/04/25 07:01:38;;;;;;;2.37;2.17;;;;;;;8.62;100.00;95662.38;4993906;28;104998;-61
2023/04/25 07:04:10;;;;;;;2.43;1.97;;;;;;;8.52;100.00;95650.94;4991430;28;105469;-61
2023/04/25 07:06:43;;;;;;;3.03;2.00;;;;;;;8.62;100.00;95649.13;4990774;28;105676;-61
2023/04/25 07:09:12;;;;;;;2.53;1.83;;;;;;;9.07;100.00;95653.91;4991097;28;101992;-61
2023/04/25 07:11:41;;;;;;;2.10;1.90;;;;;;;9.10;100.00;95648.88;4991085;28;104882;-61
2023/04/25 07:14:08;;;;;;;2.30;2.10;;;;;;;9.13;100.00;95650.22;4990454;28;105341;-61
2023/04/25 07:16:35;;;;;;;2.60;2.27;;;;;;;9.20;100.00;95643.63;4991119;28;102187;-61
2023/04/25 07:19:03;;;;;;;3.63;2.50;;;;;;;9.48;100.00;95642.41;4991094;28;104928;-61
2023/04/25 07:21:30;;;;;;;3.13;1.80;;;;;;;9.39;100.00;95641.28;4990445;28;104952;-61
2023/04/25 07:23:58;;;;;;;2.87;1.83;;;;;;;9.61;100.00;95644.53;4993915;28;102018;-61
2023/04/25 07:26:33;;;;;;;2.43;1.87;;;;;;;10.19;100.00;95641.47;4990326;28;105415;-61
2023/04/25 07:29:32;;;;;;;5.27;1.90;;;;;;;10.62;100.00;95632.91;4979699;28;101938;-61
2023/04/25 07:32:01;;;;;;;1.80;1.70;;;;;;;10.38;100.00;95629.22;4990959;28;104977;-61
2023/04/25 07:34:29;;;;;;;1.73;1.50;;;;;;;9.83;100.00;95631.84;4989153;28;105800;-61
2023/04/25 07:36:56;;;;;;;3.17;1.90;;;;;;;9.80;100.00;95635.00;4990388;28;101915;-61
2023/04/25 07:39:26;;;;;;;2.17;1.80;;;;;;;9.71;100.00;95633.94;4990813;28;105331;-61
2023/04/25 07:41:56;;;;;;;3.07;1.80;;;;;;;9.85;100.00;95635.00;4990340;28;105582;-61
2023/04/25 07:44:30;;;;;;;1.93;1.53;;;;;;;9.90;100.00;95637.69;4990748;28;101993;-61
2023/04/25 07:46:57;;;;;;;1.73;1.63;;;;;;;9.72;100.00;95630.22;4993730;28;105410;-61
2023/04/25 07:49:24;;;;;;;2.70;1.80;;;;;;;9.73;100.00;95637.13;4990736;28;101863;-61
2023/04/25 07:51:51;;;;;;;5.53;1.90;;;;;;;9.78;100.00;95639.78;4992142;28;102320;-61
2023/04/25 07:54:20;;;;;;;4.43;2.00;;;;;;;9.90;100.00;95643.81;4989778;28;105201;-61
2023/04/25 07:56:57;;;;;;;2.00;1.73;;;;;;;9.90;100.00;95632.38;4990599;28;101942;-61
2023/04/25 07:59:29;;;;;;;2.53;1.90;;;;;;;10.63;100.00;95626.56;4990497;28;104869;-61
2023/04/25 08:01:57;;;;;;;3.43;2.00;;;;;;;10.56;100.00;95621.50;4989801;28;104760;-61
2023/04/25 08:04:25;;;;;;;4.80;2.00;;;;;;;10.54;100.00;95622.84;4990665;28;101951;-61
2023/04/25 08:06:57;;;;;;;3.03;1.83;;;;;;;10.74;100.00;95633.44;4993129;28;104862;-61
2023/04/25 08:09:29;;;;;;;4.03;1.90;;;;;;;10.59;100.00;95630.81;4990371;28;101844;-61
2023/04/25 08:11:58;;;;;;;2.33;1.80;;;;;;;10.54;100.00;95639.59;4990459;28;105042;-61
2023/04/25 08:14:35;;;;;;;2.20;1.80;;;;;;;10.45;100.00;95633.22;5006170;28;105632;-61
2023/04/25 08:17:02;;;;;;;1.87;1.67;;;;;;;10.45;100.00;95637.72;4990223;28;101845;-61
2023/04/25 08:19:29;;;;;;;2.50;2.00;;;;;;;10.32;100.00;95643.59;4990152;28;105281;-61
2023/04/25 08:21:57;;;;;;;2.90;2.13;;;;;;;10.37;100.00;95638.28;4990894;28;103052;-61
2023/04/25 08:24:30;;;;;;;2.37;1.67;;;;;;;10.28;100.00;95643.31;4989302;28;102312;-61
2023/04/25 08:27:00;;;;;;;1.80;1.70;;;;;;;10.49;100.00;95636.13;4990188;28;105253;-61
2023/04/25 08:29:29;;;;;;;2.70;1.80;;;;;;;10.50;100.00;95633.22;4992468;28;105487;-61
2023/04/25 08:31:56;;;;;;;5.77;3.73;;;;;;;10.84;100.00;95639.53;4989900;28;105213;-61
2023/04/25 08:34:23;;;;;;;3.87;1.80;;;;;;;10.68;100.00;95632.63;4989304;28;104832;-61
2023/04/25 08:36:51;;;;;;;3.17;2.00;;;;;;;10.70;100.00;95633.19;4989643;28;101923;-61
2023/04/25 08:39:30;;;;;;;1.73;1.63;;;;;;;10.80;100.00;95635.03;4989762;28;104833;-61
2023/04/25 08:42:17;;;;;;;1.80;1.50;;;;;;;10.97;100.00;95643.50;4987732;28;102243;-61
2023/04/25 08:44:46;;;;;;;2.00;1.60;;;;;;;10.74;100.00;95642.19;4989462;28;101943;-61
2023/04/25 08:47:13;;;;;;;3.17;1.73;;;;;;;10.94;100.00;95639.50;4989761;28;104888;-61
2023/04/25 08:49:49;;;;;;;3.47;2.10;;;;;;;11.39;100.00;95641.22;4988763;28;105708;-61
2023/04/25 08:52:23;;;;;;;2.43;1.70;;;;;;;11.30;100.00;95635.66;4993202;28;101899;-61
2023/04/25 08:54:52;;;;;;;2.40;1.70;;;;;;;11.45;100.00;95637.47;4990668;28;102615;-61
2023/04/25 08:57:22;;;;;;;1.70;1.60;;;;;;;11.42;100.00;95644.13;5006317;28;101796;-61
2023/04/25 08:59:53;;;;;;;3.53;2.30;;;;;;;12.50;100.00;95634.09;4989361;28;105293;-61
2023/04/25 09:02:20;;;;;;;2.77;1.77;;;;;;;12.30;100.00;95634.25;4988691;28;105184;-61
2023/04/25 09:04:50;;;;;;;1.90;1.33;;;;;;;12.37;100.00;95622.19;4989420;28;101911;-61
2023/04/25 09:07:20;;;;;;;4.07;1.43;;;;;;;11.82;100.00;95624.50;4989431;28;105656;-61
2023/04/25 09:09:48;;;;;;;1.70;1.47;;;;;;;11.66;100.00;95631.78;4988629;28;105456;-61
2023/04/25 09:12:19;;;;;;;3.97;1.67;;;;;;;11.55;100.00;95629.44;4989496;28;102087;-61
2023/04/25 09:15:03;;;;;;;2.37;1.47;;;;;;;11.37;100.00;95628.16;4992061;28;105514;-61
2023/04/25 09:17:45;;;;;;;1.97;1.47;;;;;;;11.56;87.26;95629.13;4988931;28;101878;-61
2023/04/25 09:20:14;;;;;;;1.87;1.20;;;;;;;12.01;88.75;95622.75;4989186;28;105303;-60
2023/04/25 09:22:42;;;;;;;1.73;1.20;;;;;;;12.60;81.00;95620.69;4988571;28;105418;-61
2023/04/25 09:25:11;;;;;;;1.67;1.47;;;;;;;12.40;81.99;95615.53;4988713;28;101997;-61
2023/04/25 09:27:52;;;;;;;1.20;1.10;;;;;;;12.28;78.91;95629.22;4989216;28;104089;-61
2023/04/25 09:30:32;;;;;;;2.03;1.20;;;;;;;12.53;75.88;95620.22;5005324;28;106009;-61
2023/04/25 09:33:17;;;;;;;2.30;1.23;;;;;;;12.10;81.52;95624.56;4989034;28;102073;-61
2023/04/25 09:35:52;;;;;;;2.40;1.50;;;;;;;12.02;87.70;95629.69;4988800;28;105241;-60
2023/04/25 09:38:44;;;;;;;1.20;1.10;;;;;;;12.00;93.55;95637.16;4989644;28;104118;-61
2023/04/25 09:41:33;;;;;;;1.50;1.40;;;;;;;11.87;99.39;95649.22;4988983;28;105405;-61
2023/04/25 09:44:02;;;;;;;3.73;1.43;;;;;;;11.66;100.00;95647.75;4988249;28;105952;-60
2023/04/25 09:46:37;;;;;;;3.30;1.60;;;;;;;11.75;100.00;95658.63;4988916;28;101770;-61
2023/04/25 09:49:08;;;;;;;1.70;1.30;;;;;;;11.45;100.00;95656.09;4988278;28;105156;-61
2023/04/25 09:51:56;;;;;;;1.37;1.20;;;;;;;11.10;100.00;95680.16;4988357;28;105536;-61
2023/04/25 09:54:25;;;;;;;1.40;1.30;;;;;;;10.45;100.00;95690.88;5005302;28;101961;-61
2023/04/25 09:57:10;;;;;;;1.40;1.13;;;;;;;10.19;100.00;95695.38;4988166;28;105287;-61
2023/04/25 09:59:40;;;;;;;1.10;1.10;;;;;;;10.28;100.00;95666.44;4987934;28;104888;-61
2023/04/25 10:02:10;;;;;;;1.20;1.10;;;;;;;10.40;100.00;95664.28;5008482;28;101900;-61
2023/04/25 10:04:39;;;;;;;1.17;1.00;;;;;;;10.54;100.00;95674.16;4988135;28;104695;-61
2023/04/25 10:07:13;;;;;;;1.57;1.10;;;;;;;10.73;100.00;95653.09;4988716;28;102023;-61
2023/04/25 10:09:50;;;;;;;0.77;0.77;;;;;;;11.38;100.00;95651.06;4988140;28;105298;-61
2023/04/25 10:12:18;;;;;;;0.90;0.90;;;;;;;11.97;97.35;95648.34;4989237;28;103432;-61
2023/04/25 10:14:45;;;;;;;1.03;0.90;;;;;;;12.03;84.43;95652.59;4989973;28;101809;-61
2023/04/25 10:17:15;;;;;;;0.80;0.73;;;;;;;12.53;78.81;95641.56;4990047;28;102550;-61
2023/04/25 10:19:42;;;;;;;0.80;0.80;;;;;;;12.48;80.13;95642.38;4989031;28;102764;-61
2023/04/25 10:22:14;;;;;;;1.60;1.03;;;;;;;12.63;76.68;95641.44;4993098;28;101895;-62
2023/04/25 10:24:42;;;;;;;2.50;1.10;;;;;;;12.14;73.36;95644.25;4989078;28;103023;-60
2023/04/25 10:27:09;;;;;;;1.07;1.07;;;;;;;12.30;74.53;95637.72;4989719;28;101866;-60
2023/04/25 10:29:37;;;;;;;1.53;1.10;;;;;;;12.46;73.45;95654.38;4988338;28;105097;-60
2023/04/25 10:32:04;;;;;;;1.17;1.00;;;;;;;12.53;73.12;95638.88;4988846;28;102588;-60
2023/04/25 10:34:48;;;;;;;4.00;1.20;;;;;;;12.73;77.49;95644.00;4989400;28;101931;-60
2023/04/25 10:37:15;;;;;;;1.10;1.10;;;;;;;13.28;69.03;95638.13;4989476;28;102307;-60
2023/04/25 10:39:43;;;;;;;3.23;1.20;;;;;;;13.43;71.09;95629.94;4987439;28;103910;-61
2023/04/25 10:42:10;;;;;;;3.30;1.00;;;;;;;13.29;69.20;95637.84;4989464;28;101837;-60
2023/04/25 10:44:38;;;;;;;1.40;1.20;;;;;;;12.85;72.81;95641.75;4992221;28;102825;-60
2023/04/25 10:47:08;;;;;;;2.00;1.20;;;;;;;12.63;77.97;95631.56;4989601;28;101665;-60
2023/04/25 10:49:36;;;;;;;2.00;1.30;;;;;;;12.60;84.86;95626.00;4989063;28;102420;-59
2023/04/25 10:52:28;;;;;;;2.40;1.20;;;;;;;12.46;88.92;95630.38;4988883;28;102757;-60
2023/04/25 10:54:56;;;;;;;1.53;1.43;;;;;;;12.46;91.99;95625.88;4989572;28;101710;-60
2023/04/25 10:57:37;;;;;;;2.63;1.40;;;;;;;12.57;95.52;95624.69;4989680;28;102312;-60
2023/04/25 11:00:11;;;;;;;1.70;1.17;;;;;;;12.50;99.79;95631.44;4987414;28;104233;-60
2023/04/25 11:02:39;;;;;;;1.60;1.50;;;;;;;12.68;97.45;95617.38;4989562;28;101800;-60
2023/04/25 11:05:07;;;;;;;1.80;1.60;;;;;;;12.67;94.56;95619.28;4989125;28;102297;-60
2023/04/25 11:07:52;;;;;;;3.73;3.33;;;;;;;12.60;92.61;95615.34;4991046;28;105723;-58
2023/04/25 11:10:20;;;;;;;2.07;1.80;;;;;;;12.80;96.28;95620.50;4991057;28;102822;-59
2023/04/25 11:12:47;;;;;;;1.57;1.37;;;;;;;12.81;95.61;95622.06;4990396;28;105868;-60
2023/04/25 11:15:14;;;;;;;1.97;1.33;;;;;;;12.98;100.00;95609.13;4992580;28;101814;-60
2023/04/25 11:17:43;;;;;;;2.37;2.17;;;;;;;13.39;95.66;95619.03;4992700;28;102316;-60
2023/04/25 11:20:11;;;;;;;1.70;1.30;;;;;;;13.30;95.15;95614.63;4991990;28;102207;-60
2023/04/25 11:22:40;;;;;;;1.37;1.27;;;;;;;13.80;90.85;95617.41;4992220;28;101982;-60
2023/04/25 11:25:11;;;;;;;3.80;1.40;;;;;;;13.52;80.03;95618.31;4990829;28;104161;-60
2023/04/25 11:27:40;;;;;;;21.77;17.00;;;;;;;14.00;92.45;95613.66;4992078;28;103134;-60
2023/04/25 11:30:16;;;;;;;5.87;4.10;;;;;;;14.03;85.77;95613.88;4994409;28;102007;-60
2023/04/25 11:32:43;;;;;;;16.13;13.33;;;;;;;13.84;94.32;95625.66;4990145;28;103860;-60
2023/04/25 11:35:10;;;;;;;3.90;3.37;;;;;;;13.79;95.89;95623.81;4991295;28;101798;-60
2023/04/25 11:37:37;;;;;;;6.47;4.27;;;;;;;14.13;87.38;95616.41;4992121;28;102580;-61
2023/04/25 11:40:06;;;;;;;2.77;2.33;;;;;;;14.82;76.01;95605.63;4990259;28;104010;-60
2023/04/25 11:42:35;;;;;;;2.30;1.67;;;;;;;14.91;67.36;95603.03;4990702;28;102235;-60
2023/04/25 11:45:02;;;;;;;3.90;3.10;;;;;;;14.23;65.10;95610.13;4991688;28;102449;-60
2023/04/25 11:47:30;;;;;;;7.37;5.57;;;;;;;13.80;63.69;95608.59;4991166;28;102523;-60